sensor_id;sensor_type;location;lat;lon;timestamp;temperature;humidity
31046;DHT22;17711;54.018;9.300;2023-05-01T00:01:51;7.10;99.90
31046;DHT22;17711;54.018;9.300;2023-05-01T00:04:21;7.00;99.90
31046;DHT22;17711;54.018;9.300;2023-05-01T00:06:50;6.80;99.90
31046;DHT22;17711;54.018;9.300;2023-05-01T00:09:19;6.70;99.90
31046;DHT22;17711;54.018;9.300;2023-05-01T00:11:47;6.60;99.90
31046;DHT22;17711;54.018;9.300;2023-05-01T00:14:16;6.40;99.90
31046;DHT22;17711;54.018;9.300;2023-05-01T00:16:44;6.30;99.90
31046;DHT22;17711;54.018;9.300;2023-05-01T00:19:14;6.30;99.90
31046;DHT22;17711;54.018;9.300;2023-05-01T00:21:46;6.30;99.90
31046;DHT22;17711;54.018;9.300;2023-05-01T00:24:15;6.30;99.90
31046;DHT22;17711;54.018;9.300;2023-05-01T00:26:43;6.30;99.90
31046;DHT22;17711;54.018;9.300;2023-05-01T00:29:12;6.30;99.90
31046;DHT22;17711;54.018;9.300;2023-05-01T00:31:41;6.30;99.90
31046;DHT22;17711;54.018;9.300;2023-05-01T00:34:09;6.30;99.90
31046;DHT22;17711;54.018;9.300;2023-05-01T00:36:38;6.40;99.90
31046;DHT22;17711;54.018;9.300;2023-05-01T00:39:08;6.40;99.90
31046;DHT22;17711;54.018;9.300;2023-05-01T00:41:37;6.50;99.90
31046;DHT22;17711;54.018;9.300;2023-05-01T00:44:06;6.50;99.90
31046;DHT22;17711;54.018;9.300;2023-05-01T00:46:34;6.40;99.90
31046;DHT22;17711;54.018;9.300;2023-05-01T00:49:03;6.30;99.90
31046;DHT22;17711;54.018;9.300;2023-05-01T00:51:33;6.20;99.90
31046;DHT22;17711;54.018;9.300;2023-05-01T00:54:01;6.10;99.90
31046;DHT22;17711;54.018;9.300;2023-05-01T00:56:32;6.00;99.90
31046;DHT22;17711;54.018;9.300;2023-05-01T00:59:01;5.90;99.90
31046;DHT22;17711;54.018;9.300;2023-05-01T01:01:30;5.90;99.90
31046;DHT22;17711;54.018;9.300;2023-05-01T01:04:00;5.90;99.90
31046;DHT22;17711;54.018;9.300;2023-05-01T01:06:35;5.80;99.90
31046;DHT22;17711;54.018;9.300;2023-05-01T01:09:17;5.80;99.90
31046;DHT22;17711;54.018;9.300;2023-05-01T01:11:59;5.90;99.90
31046;DHT22;17711;54.018;9.300;2023-05-01T01:14:34;5.90;99.90
31046;DHT22;17711;54.018;9.300;2023-05-01T01:17:09;5.90;99.90
31046;DHT22;17711;54.018;9.300;2023-05-01T01:20:00;5.80;99.90
31046;DHT22;17711;54.018;9.300;2023-05-01T01:22:36;5.80;99.90
31046;DHT22;17711;54.018;9.300;2023-05-01T01:25:39;5.80;99.90
31046;DHT22;17711;54.018;9.300;2023-05-01T01:28:36;5.80;99.90
31046;DHT22;17711;54.018;9.300;2023-05-01T01:31:13;5.70;99.90
31046;DHT22;17711;54.018;9.300;2023-05-01T01:34:01;5.70;99.90
31046;DHT22;17711;54.018;9.300;2023-05-01T01:36:39;5.50;99.90
31046;DHT22;17711;54.018;9.300;2023-05-01T01:39:13;5.40;99.90
31046;DHT22;17711;54.018;9.300;2023-05-01T01:41:47;5.30;99.90
31046;DHT22;17711;54.018;9.300;2023-05-01T01:44:19;5.30;99.90
31046;DHT22;17711;54.018;9.300;2023-05-01T01:46:50;5.20;99.90
31046;DHT22;17711;54.018;9.300;2023-05-01T01:49:24;5.10;99.90
31046;DHT22;17711;54.018;9.300;2023-05-01T01:51:54;4.90;99.90
31046;DHT22;17711;54.018;9.300;2023-05-01T01:54:28;4.90;99.90
31046;DHT22;17711;54.018;9.300;2023-05-01T01:57:00;4.80;99.90
31046;DHT22;17711;54.018;9.300;2023-05-01T01:59:31;4.90;99.90
31046;DHT22;17711;54.018;9.300;2023-05-01T02:02:01;4.90;99.90
31046;DHT22;17711;54.018;9.300;2023-05-01T02:04:33;5.00;99.90
31046;DHT22;17711;54.018;9.300;2023-05-01T02:07:03;5.00;99.90
31046;DHT22;17711;54.018;9.300;2023-05-01T02:09:34;5.10;99.90
31046;DHT22;17711;54.018;9.300;2023-05-01T02:12:04;5.10;99.90
31046;DHT22;17711;54.018;9.300;2023-05-01T02:14:34;5.10;99.90
31046;DHT22;17711;54.018;9.300;2023-05-01T02:17:05;5.10;99.90
31046;DHT22;17711;54.018;9.300;2023-05-01T02:19:37;5.10;99.90
31046;DHT22;17711;54.018;9.300;2023-05-01T02:22:07;5.10;99.90
31046;DHT22;17711;54.018;9.300;2023-05-01T02:24:38;5.20;99.90
31046;DHT22;17711;54.018;9.300;2023-05-01T02:27:11;5.30;99.90
31046;DHT22;17711;54.018;9.300;2023-05-01T02:29:41;5.30;99.90
31046;DHT22;17711;54.018;9.300;2023-05-01T02:32:10;5.30;99.90
31046;DHT22;17711;54.018;9.300;2023-05-01T02:34:40;5.30;99.90
31046;DHT22;17711;54.018;9.300;2023-05-01T02:37:10;5.20;99.90
31046;DHT22;17711;54.018;9.300;2023-05-01T02:39:39;5.10;99.90
31046;DHT22;17711;54.018;9.300;2023-05-01T02:42:09;5.20;99.90
31046;DHT22;17711;54.018;9.300;2023-05-01T02:44:41;5.30;99.90
31046;DHT22;17711;54.018;9.300;2023-05-01T02:47:14;5.20;99.90
31046;DHT22;17711;54.018;9.300;2023-05-01T02:49:45;5.20;99.90
31046;DHT22;17711;54.018;9.300;2023-05-01T02:52:15;5.20;99.90
31046;DHT22;17711;54.018;9.300;2023-05-01T02:54:44;5.20;99.90
31046;DHT22;17711;54.018;9.300;2023-05-01T02:57:13;5.20;99.90
31046;DHT22;17711;54.018;9.300;2023-05-01T02:59:43;5.10;99.90
31046;DHT22;17711;54.018;9.300;2023-05-01T03:02:12;5.10;99.90
31046;DHT22;17711;54.018;9.300;2023-05-01T03:04:42;5.20;99.90
31046;DHT22;17711;54.018;9.300;2023-05-01T03:07:12;5.20;99.90
31046;DHT22;17711;54.018;9.300;2023-05-01T03:09:41;5.20;99.90
31046;DHT22;17711;54.018;9.300;2023-05-01T03:12:09;5.20;99.90
31046;DHT22;17711;54.018;9.300;2023-05-01T03:14:38;5.20;99.90
31046;DHT22;17711;54.018;9.300;2023-05-01T03:17:06;5.30;99.90
31046;DHT22;17711;54.018;9.300;2023-05-01T03:19:34;5.30;99.90
31046;DHT22;17711;54.018;9.300;2023-05-01T03:22:03;5.30;99.90
31046;DHT22;17711;54.018;9.300;2023-05-01T03:24:34;5.30;99.90
31046;DHT22;17711;54.018;9.300;2023-05-01T03:27:02;5.20;99.90
31046;DHT22;17711;54.018;9.300;2023-05-01T03:29:31;5.20;99.90
31046;DHT22;17711;54.018;9.300;2023-05-01T03:32:00;5.20;99.90
31046;DHT22;17711;54.018;9.300;2023-05-01T03:34:28;5.20;99.90
31046;DHT22;17711;54.018;9.300;2023-05-01T03:36:57;5.30;99.90
31046;DHT22;17711;54.018;9.300;2023-05-01T03:39:26;5.30;99.90
31046;DHT22;17711;54.018;9.300;2023-05-01T03:41:56;5.30;99.90
31046;DHT22;17711;54.018;9.300;2023-05-01T03:44:25;5.30;99.90
31046;DHT22;17711;54.018;9.300;2023-05-01T03:46:53;5.20;99.90
31046;DHT22;17711;54.018;9.300;2023-05-01T03:49:22;5.30;99.90
31046;DHT22;17711;54.018;9.300;2023-05-01T03:51:50;5.30;99.90
31046;DHT22;17711;54.018;9.300;2023-05-01T03:54:19;5.20;99.90
31046;DHT22;17711;54.018;9.300;2023-05-01T03:56:47;5.20;99.90
31046;DHT22;17711;54.018;9.300;2023-05-01T03:59:17;5.10;99.90
31046;DHT22;17711;54.018;9.300;2023-05-01T04:01:46;5.10;99.90
31046;DHT22;17711;54.018;9.300;2023-05-01T04:04:14;5.00;99.90
31046;DHT22;17711;54.018;9.300;2023-05-01T04:06:43;5.00;99.90
31046;DHT22;17711;54.018;9.300;2023-05-01T04:09:12;5.10;99.90
31046;DHT22;17711;54.018;9.300;2023-05-01T04:11:40;5.10;99.90
31046;DHT22;17711;54.018;9.300;2023-05-01T04:14:09;5.20;99.90
31046;DHT22;17711;54.018;9.300;2023-05-01T04:16:39;5.20;99.90
31046;DHT22;17711;54.018;9.300;2023-05-01T04:19:07;5.20;99.90
31046;DHT22;17711;54.018;9.300;2023-05-01T04:21:36;5.30;99.90
31046;DHT22;17711;54.018;9.300;2023-05-01T04:24:05;5.30;99.90
31046;DHT22;17711;54.018;9.300;2023-05-01T04:26:33;5.40;99.90
31046;DHT22;17711;54.018;9.300;2023-05-01T04:29:02;5.50;99.90
31046;DHT22;17711;54.018;9.300;2023-05-01T04:31:31;5.60;99.90
31046;DHT22;17711;54.018;9.300;2023-05-01T04:34:02;5.60;99.90
31046;DHT22;17711;54.018;9.300;2023-05-01T04:36:30;5.70;99.90
31046;DHT22;17711;54.018;9.300;2023-05-01T04:39:00;5.80;99.90
31046;DHT22;17711;54.018;9.300;2023-05-01T04:41:29;5.90;99.90
31046;DHT22;17711;54.018;9.300;2023-05-01T04:43:58;5.90;99.90
31046;DHT22;17711;54.018;9.300;2023-05-01T04:46:28;6.00;99.90
31046;DHT22;17711;54.018;9.300;2023-05-01T04:48:56;6.00;99.90
31046;DHT22;17711;54.018;9.300;2023-05-01T04:51:26;6.20;99.90
31046;DHT22;17711;54.018;9.300;2023-05-01T04:53:55;6.20;99.90
31046;DHT22;17711;54.018;9.300;2023-05-01T04:56:24;6.20;99.90
31046;DHT22;17711;54.018;9.300;2023-05-01T04:58:53;6.30;99.90
31046;DHT22;17711;54.018;9.300;2023-05-01T05:01:21;6.40;99.90
31046;DHT22;17711;54.018;9.300;2023-05-01T05:03:49;6.50;99.90
31046;DHT22;17711;54.018;9.300;2023-05-01T05:06:18;6.60;99.90
31046;DHT22;17711;54.018;9.300;2023-05-01T05:08:49;6.70;99.90
31046;DHT22;17711;54.018;9.300;2023-05-01T05:11:18;6.80;99.90
31046;DHT22;17711;54.018;9.300;2023-05-01T05:13:46;6.90;99.90
31046;DHT22;17711;54.018;9.300;2023-05-01T05:16:15;7.00;99.90
31046;DHT22;17711;54.018;9.300;2023-05-01T05:18:43;7.10;99.90
31046;DHT22;17711;54.018;9.300;2023-05-01T05:21:12;7.20;99.90
31046;DHT22;17711;54.018;9.300;2023-05-01T05:23:41;7.40;99.90
31046;DHT22;17711;54.018;9.300;2023-05-01T05:26:10;7.50;99.90
31046;DHT22;17711;54.018;9.300;2023-05-01T05:28:39;7.60;99.90
31046;DHT22;17711;54.018;9.300;2023-05-01T05:31:08;7.70;99.90
31046;DHT22;17711;54.018;9.300;2023-05-01T05:33:36;7.80;99.90
31046;DHT22;17711;54.018;9.300;2023-05-01T05:36:05;7.80;99.90
31046;DHT22;17711;54.018;9.300;2023-05-01T05:38:34;8.00;99.90
31046;DHT22;17711;54.018;9.300;2023-05-01T05:41:02;8.10;99.90
31046;DHT22;17711;54.018;9.300;2023-05-01T05:43:32;8.20;99.90
31046;DHT22;17711;54.018;9.300;2023-05-01T05:46:01;8.40;99.90
31046;DHT22;17711;54.018;9.300;2023-05-01T05:48:30;8.50;99.90
31046;DHT22;17711;54.018;9.300;2023-05-01T05:50:59;8.50;99.90
31046;DHT22;17711;54.018;9.300;2023-05-01T05:53:27;8.60;99.90
31046;DHT22;17711;54.018;9.300;2023-05-01T05:55:56;8.70;99.90
31046;DHT22;17711;54.018;9.300;2023-05-01T05:58:25;8.80;99.90
31046;DHT22;17711;54.018;9.300;2023-05-01T06:00:55;8.80;99.90
31046;DHT22;17711;54.018;9.300;2023-05-01T06:03:24;8.90;99.90
31046;DHT22;17711;54.018;9.300;2023-05-01T06:05:53;9.00;99.90
31046;DHT22;17711;54.018;9.300;2023-05-01T06:08:22;9.00;99.90
31046;DHT22;17711;54.018;9.300;2023-05-01T06:10:50;9.10;99.90
31046;DHT22;17711;54.018;9.300;2023-05-01T06:13:19;9.20;99.90
31046;DHT22;17711;54.018;9.300;2023-05-01T06:15:47;9.30;99.90
31046;DHT22;17711;54.018;9.300;2023-05-01T06:18:18;9.30;99.90
31046;DHT22;17711;54.018;9.300;2023-05-01T06:20:46;9.40;99.90
31046;DHT22;17711;54.018;9.300;2023-05-01T06:23:15;9.40;99.90
31046;DHT22;17711;54.018;9.300;2023-05-01T06:25:43;9.50;99.90
31046;DHT22;17711;54.018;9.300;2023-05-01T06:28:12;9.50;99.90
31046;DHT22;17711;54.018;9.300;2023-05-01T06:30:40;9.60;99.90
31046;DHT22;17711;54.018;9.300;2023-05-01T06:33:09;9.60;99.90
31046;DHT22;17711;54.018;9.300;2023-05-01T06:35:39;9.70;99.90
31046;DHT22;17711;54.018;9.300;2023-05-01T06:38:08;9.80;99.90
31046;DHT22;17711;54.018;9.300;2023-05-01T06:40:37;9.80;99.90
31046;DHT22;17711;54.018;9.300;2023-05-01T06:43:05;9.90;99.90
31046;DHT22;17711;54.018;9.300;2023-05-01T06:45:34;10.00;99.90
31046;DHT22;17711;54.018;9.300;2023-05-01T06:48:05;10.00;99.90
31046;DHT22;17711;54.018;9.300;2023-05-01T06:50:34;10.00;99.90
31046;DHT22;17711;54.018;9.300;2023-05-01T06:53:04;10.10;99.90
31046;DHT22;17711;54.018;9.300;2023-05-01T06:55:32;10.20;99.90
31046;DHT22;17711;54.018;9.300;2023-05-01T06:58:01;10.30;99.90
31046;DHT22;17711;54.018;9.300;2023-05-01T07:00:48;10.40;99.90
31046;DHT22;17711;54.018;9.300;2023-05-01T07:03:17;10.50;99.90
31046;DHT22;17711;54.018;9.300;2023-05-01T07:05:45;10.60;99.90
31046;DHT22;17711;54.018;9.300;2023-05-01T07:08:15;10.70;99.90
31046;DHT22;17711;54.018;9.300;2023-05-01T07:10:44;10.90;99.90
31046;DHT22;17711;54.018;9.300;2023-05-01T07:13:12;11.00;99.90
31046;DHT22;17711;54.018;9.300;2023-05-01T07:15:41;11.10;99.90
31046;DHT22;17711;54.018;9.300;2023-05-01T07:18:10;11.20;99.90
31046;DHT22;17711;54.018;9.300;2023-05-01T07:20:39;11.40;99.90
31046;DHT22;17711;54.018;9.300;2023-05-01T07:23:08;11.60;99.90
31046;DHT22;17711;54.018;9.300;2023-05-01T07:25:38;11.70;99.90
31046;DHT22;17711;54.018;9.300;2023-05-01T07:28:07;11.90;99.90
31046;DHT22;17711;54.018;9.300;2023-05-01T07:30:35;12.00;99.90
31046;DHT22;17711;54.018;9.300;2023-05-01T07:33:04;12.20;99.90
31046;DHT22;17711;54.018;9.300;2023-05-01T07:35:33;12.30;99.90
31046;DHT22;17711;54.018;9.300;2023-05-01T07:38:01;12.30;99.90
31046;DHT22;17711;54.018;9.300;2023-05-01T07:40:32;12.50;99.90
31046;DHT22;17711;54.018;9.300;2023-05-01T07:43:03;12.70;99.90
31046;DHT22;17711;54.018;9.300;2023-05-01T07:45:32;12.90;99.90
31046;DHT22;17711;54.018;9.300;2023-05-01T07:48:00;13.10;99.90
31046;DHT22;17711;54.018;9.300;2023-05-01T07:50:29;13.30;99.90
31046;DHT22;17711;54.018;9.300;2023-05-01T07:52:58;13.70;99.90
31046;DHT22;17711;54.018;9.300;2023-05-01T07:55:27;13.80;99.90
31046;DHT22;17711;54.018;9.300;2023-05-01T07:57:56;14.10;99.90
31046;DHT22;17711;54.018;9.300;2023-05-01T08:00:26;14.30;99.90
31046;DHT22;17711;54.018;9.300;2023-05-01T08:02:54;14.70;99.90
31046;DHT22;17711;54.018;9.300;2023-05-01T08:05:23;15.00;99.90
31046;DHT22;17711;54.018;9.300;2023-05-01T08:07:52;15.80;99.90
31046;DHT22;17711;54.018;9.300;2023-05-01T08:10:20;17.10;99.90
31046;DHT22;17711;54.018;9.300;2023-05-01T08:12:49;18.30;99.90
31046;DHT22;17711;54.018;9.300;2023-05-01T08:15:17;19.30;73.20
31046;DHT22;17711;54.018;9.300;2023-05-01T08:17:48;19.70;84.90
31046;DHT22;17711;54.018;9.300;2023-05-01T08:20:17;20.30;93.00
31046;DHT22;17711;54.018;9.300;2023-05-01T08:22:46;21.10;59.70
31046;DHT22;17711;54.018;9.300;2023-05-01T08:25:14;21.70;77.20
31046;DHT22;17711;54.018;9.300;2023-05-01T08:27:43;22.60;51.70
31046;DHT22;17711;54.018;9.300;2023-05-01T08:30:12;23.00;54.10
31046;DHT22;17711;54.018;9.300;2023-05-01T08:32:43;23.90;47.60
31046;DHT22;17711;54.018;9.300;2023-05-01T08:35:14;24.70;49.70
31046;DHT22;17711;54.018;9.300;2023-05-01T08:37:42;25.70;48.10
31046;DHT22;17711;54.018;9.300;2023-05-01T08:40:13;26.70;38.30
31046;DHT22;17711;54.018;9.300;2023-05-01T08:42:42;27.20;34.00
31046;DHT22;17711;54.018;9.300;2023-05-01T08:45:11;27.70;37.20
31046;DHT22;17711;54.018;9.300;2023-05-01T08:47:39;27.80;33.30
31046;DHT22;17711;54.018;9.300;2023-05-01T08:50:10;27.40;32.90
31046;DHT22;17711;54.018;9.300;2023-05-01T08:52:41;27.50;31.30
31046;DHT22;17711;54.018;9.300;2023-05-01T08:55:13;27.90;37.80
31046;DHT22;17711;54.018;9.300;2023-05-01T08:57:44;28.20;30.60
31046;DHT22;17711;54.018;9.300;2023-05-01T09:00:16;28.20;32.80
31046;DHT22;17711;54.018;9.300;2023-05-01T09:02:48;28.40;32.40
31046;DHT22;17711;54.018;9.300;2023-05-01T09:05:18;28.30;33.20
31046;DHT22;17711;54.018;9.300;2023-05-01T09:07:48;28.80;30.90
31046;DHT22;17711;54.018;9.300;2023-05-01T09:10:17;29.40;32.00
31046;DHT22;17711;54.018;9.300;2023-05-01T09:12:48;29.50;28.60
31046;DHT22;17711;54.018;9.300;2023-05-01T09:15:20;30.30;28.30
31046;DHT22;17711;54.018;9.300;2023-05-01T09:17:49;30.60;30.10
31046;DHT22;17711;54.018;9.300;2023-05-01T09:20:19;31.20;30.00
31046;DHT22;17711;54.018;9.300;2023-05-01T09:22:49;31.40;25.60
31046;DHT22;17711;54.018;9.300;2023-05-01T09:25:18;32.00;26.20
31046;DHT22;17711;54.018;9.300;2023-05-01T09:27:46;32.20;26.90
31046;DHT22;17711;54.018;9.300;2023-05-01T09:30:32;31.80;23.00
31046;DHT22;17711;54.018;9.300;2023-05-01T09:33:05;31.40;25.30
31046;DHT22;17711;54.018;9.300;2023-05-01T09:35:50;31.40;24.40
31046;DHT22;17711;54.018;9.300;2023-05-01T09:38:22;30.80;26.20
31046;DHT22;17711;54.018;9.300;2023-05-01T09:40:53;31.40;25.40
31046;DHT22;17711;54.018;9.300;2023-05-01T09:43:26;32.00;25.50
31046;DHT22;17711;54.018;9.300;2023-05-01T09:46:02;32.10;24.90
31046;DHT22;17711;54.018;9.300;2023-05-01T09:48:33;32.40;26.50
31046;DHT22;17711;54.018;9.300;2023-05-01T09:51:20;32.60;24.40
31046;DHT22;17711;54.018;9.300;2023-05-01T09:53:50;33.00;24.10
31046;DHT22;17711;54.018;9.300;2023-05-01T09:56:19;33.40;23.90
31046;DHT22;17711;54.018;9.300;2023-05-01T09:58:50;32.50;21.90
31046;DHT22;17711;54.018;9.300;2023-05-01T10:01:36;32.50;24.70
31046;DHT22;17711;54.018;9.300;2023-05-01T10:04:07;32.50;23.90
31046;DHT22;17711;54.018;9.300;2023-05-01T10:06:36;32.40;23.20
31046;DHT22;17711;54.018;9.300;2023-05-01T10:09:07;32.00;22.90
31046;DHT22;17711;54.018;9.300;2023-05-01T10:11:47;31.80;22.90
31046;DHT22;17711;54.018;9.300;2023-05-01T10:14:18;31.70;23.50
31046;DHT22;17711;54.018;9.300;2023-05-01T10:16:50;31.70;25.60
31046;DHT22;17711;54.018;9.300;2023-05-01T10:19:20;31.60;25.80
31046;DHT22;17711;54.018;9.300;2023-05-01T10:21:49;30.90;24.00
31046;DHT22;17711;54.018;9.300;2023-05-01T10:24:20;30.80;24.60
31046;DHT22;17711;54.018;9.300;2023-05-01T10:26:50;30.70;26.20
31046;DHT22;17711;54.018;9.300;2023-05-01T10:29:21;30.60;30.00
31046;DHT22;17711;54.018;9.300;2023-05-01T10:31:50;30.90;27.00
31046;DHT22;17711;54.018;9.300;2023-05-01T10:34:20;31.30;30.30
31046;DHT22;17711;54.018;9.300;2023-05-01T10:36:57;32.00;25.30
31046;DHT22;17711;54.018;9.300;2023-05-01T10:39:33;32.10;25.50
31046;DHT22;17711;54.018;9.300;2023-05-01T10:42:04;32.30;24.20
31046;DHT22;17711;54.018;9.300;2023-05-01T10:44:34;32.60;23.90
31046;DHT22;17711;54.018;9.300;2023-05-01T10:50:10;33.30;23.70
31046;DHT22;17711;54.018;9.300;2023-05-01T10:55:48;32.60;23.70
31046;DHT22;17711;54.018;9.300;2023-05-01T10:58:55;32.50;24.70
31046;DHT22;17711;54.018;9.300;2023-05-01T11:01:29;32.70;24.30
31046;DHT22;17711;54.018;9.300;2023-05-01T11:04:00;32.50;24.30
31046;DHT22;17711;54.018;9.300;2023-05-01T11:06:30;32.90;22.60
31046;DHT22;17711;54.018;9.300;2023-05-01T11:09:00;33.20;23.10
31046;DHT22;17711;54.018;9.300;2023-05-01T11:11:49;33.60;24.20
31046;DHT22;17711;54.018;9.300;2023-05-01T11:14:17;33.60;21.00
31046;DHT22;17711;54.018;9.300;2023-05-01T11:16:46;33.70;23.20
31046;DHT22;17711;54.018;9.300;2023-05-01T11:19:45;34.10;22.90
31046;DHT22;17711;54.018;9.300;2023-05-01T11:22:18;34.10;24.60
31046;DHT22;17711;54.018;9.300;2023-05-01T11:24:48;34.60;21.40
31046;DHT22;17711;54.018;9.300;2023-05-01T11:27:18;34.50;22.30
31046;DHT22;17711;54.018;9.300;2023-05-01T11:29:49;34.30;22.40
31046;DHT22;17711;54.018;9.300;2023-05-01T11:32:21;34.20;23.60
31046;DHT22;17711;54.018;9.300;2023-05-01T11:34:51;34.80;22.90
31046;DHT22;17711;54.018;9.300;2023-05-01T11:37:38;35.00;20.90
31046;DHT22;17711;54.018;9.300;2023-05-01T11:40:18;34.40;23.20
31046;DHT22;17711;54.018;9.300;2023-05-01T11:42:50;34.50;22.60
31046;DHT22;17711;54.018;9.300;2023-05-01T11:45:19;34.60;23.40
31046;DHT22;17711;54.018;9.300;2023-05-01T11:47:48;35.10;22.90
31046;DHT22;17711;54.018;9.300;2023-05-01T11:50:16;35.10;21.40
31046;DHT22;17711;54.018;9.300;2023-05-01T11:52:47;34.50;19.80
31046;DHT22;17711;54.018;9.300;2023-05-01T11:55:15;33.70;21.40
31046;DHT22;17711;54.018;9.300;2023-05-01T11:57:45;33.30;22.40
31046;DHT22;17711;54.018;9.300;2023-05-01T12:00:25;33.60;22.10
31046;DHT22;17711;54.018;9.300;2023-05-01T12:02:59;33.90;21.80
31046;DHT22;17711;54.018;9.300;2023-05-01T12:05:29;34.00;22.60
31046;DHT22;17711;54.018;9.300;2023-05-01T12:08:12;34.20;22.10
31046;DHT22;17711;54.018;9.300;2023-05-01T12:10:41;34.20;24.40
31046;DHT22;17711;54.018;9.300;2023-05-01T12:13:11;34.70;20.70
31046;DHT22;17711;54.018;9.300;2023-05-01T12:15:44;34.80;22.40
31046;DHT22;17711;54.018;9.300;2023-05-01T12:18:13;34.80;21.10
31046;DHT22;17711;54.018;9.300;2023-05-01T12:20:43;35.20;21.50
31046;DHT22;17711;54.018;9.300;2023-05-01T12:23:14;35.10;21.30
31046;DHT22;17711;54.018;9.300;2023-05-01T12:25:44;34.60;21.20
31046;DHT22;17711;54.018;9.300;2023-05-01T12:28:14;34.50;21.50
31046;DHT22;17711;54.018;9.300;2023-05-01T12:30:45;34.70;21.40
31046;DHT22;17711;54.018;9.300;2023-05-01T12:33:16;34.10;22.50
31046;DHT22;17711;54.018;9.300;2023-05-01T12:35:48;33.60;21.90
31046;DHT22;17711;54.018;9.300;2023-05-01T12:38:18;32.70;22.00
31046;DHT22;17711;54.018;9.300;2023-05-01T12:40:52;31.80;24.40
31046;DHT22;17711;54.018;9.300;2023-05-01T12:43:21;31.50;26.10
31046;DHT22;17711;54.018;9.300;2023-05-01T12:45:58;31.70;25.40
31046;DHT22;17711;54.018;9.300;2023-05-01T12:48:27;32.00;24.70
31046;DHT22;17711;54.018;9.300;2023-05-01T12:50:57;31.90;24.10
31046;DHT22;17711;54.018;9.300;2023-05-01T12:53:27;31.50;24.00
31046;DHT22;17711;54.018;9.300;2023-05-01T12:55:57;30.60;25.40
31046;DHT22;17711;54.018;9.300;2023-05-01T12:58:34;30.20;25.50
31046;DHT22;17711;54.018;9.300;2023-05-01T13:01:05;29.10;25.80
31046;DHT22;17711;54.018;9.300;2023-05-01T13:03:34;28.10;26.50
31046;DHT22;17711;54.018;9.300;2023-05-01T13:06:07;26.80;28.80
31046;DHT22;17711;54.018;9.300;2023-05-01T13:08:37;26.10;28.90
31046;DHT22;17711;54.018;9.300;2023-05-01T13:11:10;25.70;30.50
31046;DHT22;17711;54.018;9.300;2023-05-01T13:13:40;25.60;30.90
31046;DHT22;17711;54.018;9.300;2023-05-01T13:16:12;25.50;30.90
31046;DHT22;17711;54.018;9.300;2023-05-01T13:18:43;25.50;32.60
31046;DHT22;17711;54.018;9.300;2023-05-01T13:21:13;25.50;33.60
31046;DHT22;17711;54.018;9.300;2023-05-01T13:23:51;25.70;36.90
31046;DHT22;17711;54.018;9.300;2023-05-01T13:26:28;25.80;33.20
31046;DHT22;17711;54.018;9.300;2023-05-01T13:28:58;26.60;31.40
31046;DHT22;17711;54.018;9.300;2023-05-01T13:31:29;27.10;30.60
31046;DHT22;17711;54.018;9.300;2023-05-01T13:33:58;27.90;29.00
31046;DHT22;17711;54.018;9.300;2023-05-01T13:36:30;28.30;28.90
31046;DHT22;17711;54.018;9.300;2023-05-01T13:39:00;27.80;28.20
31046;DHT22;17711;54.018;9.300;2023-05-01T13:41:29;26.90;29.10
31046;DHT22;17711;54.018;9.300;2023-05-01T13:43:58;26.20;32.00
31046;DHT22;17711;54.018;9.300;2023-05-01T13:46:29;26.00;32.60
31046;DHT22;17711;54.018;9.300;2023-05-01T13:49:02;26.50;30.70
31046;DHT22;17711;54.018;9.300;2023-05-01T13:51:30;26.90;31.80
31046;DHT22;17711;54.018;9.300;2023-05-01T13:54:03;27.40;30.10
31046;DHT22;17711;54.018;9.300;2023-05-01T13:56:33;26.90;30.10
31046;DHT22;17711;54.018;9.300;2023-05-01T13:59:03;26.00;31.10
31046;DHT22;17711;54.018;9.300;2023-05-01T14:01:37;26.00;37.50
31046;DHT22;17711;54.018;9.300;2023-05-01T14:04:08;27.30;39.80
31046;DHT22;17711;54.018;9.300;2023-05-01T14:06:41;27.50;34.90
31046;DHT22;17711;54.018;9.300;2023-05-01T14:09:10;27.10;33.90
31046;DHT22;17711;54.018;9.300;2023-05-01T14:11:43;26.60;36.70
31046;DHT22;17711;54.018;9.300;2023-05-01T14:14:14;26.20;35.10
31046;DHT22;17711;54.018;9.300;2023-05-01T14:16:50;26.20;40.60
31046;DHT22;17711;54.018;9.300;2023-05-01T14:19:19;26.80;41.00
31046;DHT22;17711;54.018;9.300;2023-05-01T14:21:48;27.40;37.00
31046;DHT22;17711;54.018;9.300;2023-05-01T14:24:17;27.60;36.30
31046;DHT22;17711;54.018;9.300;2023-05-01T14:26:46;27.60;35.50
31046;DHT22;17711;54.018;9.300;2023-05-01T14:29:21;27.40;37.20
31046;DHT22;17711;54.018;9.300;2023-05-01T14:31:52;27.20;36.00
31046;DHT22;17711;54.018;9.300;2023-05-01T14:34:22;27.00;33.80
31046;DHT22;17711;54.018;9.300;2023-05-01T14:36:55;26.90;35.00
31046;DHT22;17711;54.018;9.300;2023-05-01T14:39:25;26.60;34.40
31046;DHT22;17711;54.018;9.300;2023-05-01T14:41:55;26.10;34.20
31046;DHT22;17711;54.018;9.300;2023-05-01T14:44:26;26.00;36.40
31046;DHT22;17711;54.018;9.300;2023-05-01T14:46:56;25.90;34.60
31046;DHT22;17711;54.018;9.300;2023-05-01T14:49:26;26.10;34.50
31046;DHT22;17711;54.018;9.300;2023-05-01T14:51:55;26.30;32.50
31046;DHT22;17711;54.018;9.300;2023-05-01T14:54:24;26.50;31.40
31046;DHT22;17711;54.018;9.300;2023-05-01T14:56:53;26.30;30.70
31046;DHT22;17711;54.018;9.300;2023-05-01T14:59:21;26.30;35.40
31046;DHT22;17711;54.018;9.300;2023-05-01T15:01:50;26.40;32.70
31046;DHT22;17711;54.018;9.300;2023-05-01T15:04:20;26.50;32.80
31046;DHT22;17711;54.018;9.300;2023-05-01T15:06:49;26.40;31.90
31046;DHT22;17711;54.018;9.300;2023-05-01T15:09:18;25.80;30.20
31046;DHT22;17711;54.018;9.300;2023-05-01T15:11:46;25.30;32.70
31046;DHT22;17711;54.018;9.300;2023-05-01T15:14:15;25.10;33.80
31046;DHT22;17711;54.018;9.300;2023-05-01T15:16:43;25.10;35.50
31046;DHT22;17711;54.018;9.300;2023-05-01T15:19:13;25.00;39.20
31046;DHT22;17711;54.018;9.300;2023-05-01T15:21:43;25.00;34.00
31046;DHT22;17711;54.018;9.300;2023-05-01T15:24:11;24.90;34.00
31046;DHT22;17711;54.018;9.300;2023-05-01T15:26:40;24.60;33.00
31046;DHT22;17711;54.018;9.300;2023-05-01T15:29:08;24.40;32.90
31046;DHT22;17711;54.018;9.300;2023-05-01T15:31:37;24.20;36.60
31046;DHT22;17711;54.018;9.300;2023-05-01T15:34:05;23.90;32.70
31046;DHT22;17711;54.018;9.300;2023-05-01T15:36:34;23.60;36.40
31046;DHT22;17711;54.018;9.300;2023-05-01T15:39:04;23.20;36.10
31046;DHT22;17711;54.018;9.300;2023-05-01T15:41:37;22.90;38.00
31046;DHT22;17711;54.018;9.300;2023-05-01T15:44:06;22.60;38.10
31046;DHT22;17711;54.018;9.300;2023-05-01T15:46:36;22.30;37.60
31046;DHT22;17711;54.018;9.300;2023-05-01T15:49:06;22.00;37.30
31046;DHT22;17711;54.018;9.300;2023-05-01T15:51:35;21.80;37.70
31046;DHT22;17711;54.018;9.300;2023-05-01T15:54:06;21.70;39.30
31046;DHT22;17711;54.018;9.300;2023-05-01T15:56:35;21.60;38.40
31046;DHT22;17711;54.018;9.300;2023-05-01T15:59:04;21.50;40.70
31046;DHT22;17711;54.018;9.300;2023-05-01T16:01:34;21.50;40.50
31046;DHT22;17711;54.018;9.300;2023-05-01T16:04:03;21.50;43.20
31046;DHT22;17711;54.018;9.300;2023-05-01T16:06:31;21.50;45.80